createdAt,value
2019-03-02T00:01:57.728Z,95484.00
2019-03-02T00:04:28.115Z,95497.00
2019-03-02T00:06:58.494Z,95493.00
2019-03-02T00:09:31.789Z,95482.00
2019-03-02T00:12:00.908Z,95489.00
2019-03-02T00:14:31.290Z,95496.00
2019-03-02T00:17:01.636Z,95489.00
2019-03-02T00:19:31.950Z,95497.00
2019-03-02T00:22:06.443Z,95495.00
2019-03-02T00:24:34.416Z,95500.00
2019-03-02T00:27:04.761Z,95491.00
2019-03-02T00:29:35.113Z,95499.00
2019-03-02T00:32:05.802Z,95502.00
2019-03-02T00:34:37.564Z,95502.00
2019-03-02T00:37:07.982Z,95497.00
2019-03-02T00:39:38.374Z,95493.00
2019-03-02T00:42:08.707Z,95500.00
2019-03-02T00:44:39.401Z,95488.00
2019-03-02T00:47:09.797Z,95484.00
2019-03-02T00:49:40.157Z,95493.00
2019-03-02T00:52:10.476Z,95494.00
2019-03-02T00:54:43.437Z,95500.00
2019-03-02T00:57:14.847Z,95498.00
2019-03-02T00:59:44.954Z,95493.00
2019-03-02T01:02:15.334Z,95491.00
2019-03-02T01:04:45.700Z,95492.00
2019-03-02T01:07:16.042Z,95502.00
2019-03-02T01:09:46.705Z,95494.00
2019-03-02T01:12:17.725Z,95489.00
2019-03-02T01:14:48.061Z,95492.00
2019-03-02T01:17:18.404Z,95489.00
2019-03-02T01:19:49.015Z,95490.00
2019-03-02T01:22:20.826Z,95493.00
2019-03-02T01:24:51.172Z,95482.00
2019-03-02T01:27:21.548Z,95486.00
2019-03-02T01:29:54.651Z,95483.00
2019-03-02T01:32:23.922Z,95481.00
2019-03-02T01:34:54.262Z,95473.00
2019-03-02T01:37:24.593Z,95477.00
2019-03-02T01:39:54.934Z,95479.00
2019-03-02T01:42:25.887Z,95479.00
2019-03-02T01:44:57.407Z,95485.00
2019-03-02T01:47:27.729Z,95476.00
2019-03-02T01:49:58.125Z,95471.00
2019-03-02T01:52:30.617Z,95485.00
2019-03-02T01:55:00.511Z,95478.00
2019-03-02T01:57:30.897Z,95476.00
2019-03-02T02:00:01.297Z,95480.00
2019-03-02T02:02:32.750Z,95482.00
2019-03-02T02:05:03.786Z,95485.00
2019-03-02T02:07:34.111Z,95481.00
2019-03-02T02:10:07.377Z,95477.00
2019-03-02T02:12:37.735Z,95472.00
2019-03-02T02:15:11.319Z,95470.00
2019-03-02T02:17:41.684Z,95471.00
2019-03-02T02:20:14.632Z,95471.00
2019-03-02T02:22:45.660Z,95465.00
2019-03-02T02:25:16.935Z,95464.00
2019-03-02T02:27:47.316Z,95465.00
2019-03-02T02:30:26.290Z,95467.00
2019-03-02T02:33:03.197Z,95469.00
2019-03-02T02:35:28.816Z,95472.00
2019-03-02T02:37:59.214Z,95469.00
2019-03-02T02:40:29.549Z,95473.00
2019-03-02T02:42:59.887Z,95464.00
2019-03-02T02:45:30.591Z,95463.00
2019-03-02T02:48:00.970Z,95464.00
2019-03-02T02:50:31.647Z,95454.00
2019-03-02T02:53:06.844Z,95462.00
2019-03-02T02:55:36.087Z,95453.00
2019-03-02T02:58:06.212Z,95467.00
2019-03-02T03:00:37.094Z,95468.00
2019-03-02T03:03:07.454Z,95461.00
2019-03-02T03:05:37.835Z,95445.00
2019-03-02T03:08:08.167Z,95452.00
2019-03-02T03:10:40.427Z,95453.00
2019-03-02T03:13:10.792Z,95442.00
2019-03-02T03:15:46.553Z,95447.00
2019-03-02T03:18:16.898Z,95439.00
2019-03-02T03:20:48.785Z,95454.00
2019-03-02T03:23:19.914Z,95453.00
2019-03-02T03:25:56.167Z,95448.00
2019-03-02T03:28:25.949Z,95442.00
2019-03-02T03:30:55.640Z,95445.00
2019-03-02T03:33:25.982Z,95443.00
2019-03-02T03:35:57.735Z,95449.00
2019-03-02T03:39:28.786Z,95452.00
2019-03-02T03:41:59.112Z,95451.00
2019-03-02T03:44:29.470Z,95451.00
2019-03-02T03:47:00.738Z,95454.00
2019-03-02T03:49:34.266Z,95460.00
2019-03-02T03:52:09.251Z,95459.00
2019-03-02T03:54:36.026Z,95446.00
2019-03-02T03:57:06.344Z,95450.00
2019-03-02T03:59:36.689Z,95447.00
2019-03-02T04:02:07.073Z,95454.00
2019-03-02T04:04:37.388Z,95449.00
2019-03-02T04:07:08.140Z,95453.00
2019-03-02T04:09:42.874Z,95447.00
2019-03-02T04:12:10.680Z,95447.00
2019-03-02T04:14:41.052Z,95445.00
2019-03-02T04:17:11.438Z,95468.00
2019-03-02T04:19:41.764Z,95450.00
2019-03-02T04:22:13.894Z,95461.00
2019-03-02T04:24:44.356Z,95453.00
2019-03-02T04:27:15.661Z,95460.00
2019-03-02T04:29:50.388Z,95454.00
2019-03-02T04:32:18.962Z,95445.00
2019-03-02T04:34:49.309Z,95460.00
2019-03-02T04:37:20.273Z,95449.00
2019-03-02T04:39:51.758Z,95460.00
2019-03-02T04:42:22.076Z,95460.00
2019-03-02T04:44:52.479Z,95463.00
2019-03-02T04:47:26.232Z,95463.00
2019-03-02T04:49:54.874Z,95467.00
2019-03-02T04:52:25.432Z,95461.00
2019-03-02T04:54:55.760Z,95452.00
2019-03-02T04:57:26.097Z,95454.00
2019-03-02T04:59:56.842Z,95454.00
2019-03-02T05:02:27.964Z,95465.00
2019-03-02T05:04:58.290Z,95451.00
2019-03-02T05:07:30.221Z,95463.00
2019-03-02T05:10:00.690Z,95460.00
2019-03-02T05:12:31.048Z,95461.00
2019-03-02T05:15:01.429Z,95467.00
2019-03-02T05:17:31.907Z,95465.00
2019-03-02T05:20:04.785Z,95469.00
2019-03-02T05:22:34.403Z,95470.00
2019-03-02T05:25:05.086Z,95464.00
2019-03-02T05:27:35.442Z,95465.00
2019-03-02T05:30:06.627Z,95475.00
2019-03-02T05:32:36.983Z,95481.00
2019-03-02T05:35:07.346Z,95474.00
2019-03-02T05:37:39.194Z,95476.00
2019-03-02T05:40:09.865Z,95473.00
2019-03-02T05:42:40.192Z,95471.00
2019-03-02T05:45:10.921Z,95478.00
2019-03-02T05:47:41.243Z,95479.00
2019-03-02T05:50:11.638Z,95483.00
2019-03-02T05:52:42.045Z,95489.00
2019-03-02T05:55:14.332Z,95492.00
2019-03-02T05:57:45.152Z,95487.00
2019-03-02T06:00:16.385Z,95491.00
2019-03-02T06:02:46.880Z,95493.00
2019-03-02T06:05:17.191Z,95500.00
2019-03-02T06:07:47.510Z,95498.00
2019-03-02T06:10:17.974Z,95503.00
2019-03-02T06:12:51.545Z,95508.00
2019-03-02T06:15:20.493Z,95510.00
2019-03-02T06:17:50.834Z,95506.00
2019-03-02T06:20:21.276Z,95512.00
2019-03-02T06:22:52.359Z,95512.00
2019-03-02T06:25:23.804Z,95511.00
2019-03-02T06:27:54.187Z,95507.00
2019-03-02T06:30:24.641Z,95521.00
2019-03-02T06:32:55.104Z,95510.00
2019-03-02T06:35:29.110Z,95512.00
2019-03-02T06:37:58.863Z,95517.00
2019-03-02T06:40:29.230Z,95513.00
2019-03-02T06:42:59.729Z,95513.00
2019-03-02T06:45:30.080Z,95511.00
2019-03-02T06:48:00.525Z,95511.00
2019-03-02T06:50:31.805Z,95508.00
2019-03-02T06:53:03.157Z,95513.00
2019-03-02T06:55:33.503Z,95519.00
2019-03-02T06:58:05.520Z,95504.00
2019-03-02T07:00:35.891Z,95513.00
2019-03-02T07:03:06.687Z,95505.00
2019-03-02T07:05:38.349Z,95516.00
2019-03-02T07:08:08.857Z,95511.00
2019-03-02T07:10:39.199Z,95504.00
2019-03-02T07:13:11.313Z,95507.00
2019-03-02T07:15:43.682Z,95513.00
2019-03-02T07:18:32.729Z,95516.00
2019-03-02T07:21:06.470Z,95514.00
2019-03-02T07:23:35.392Z,95515.00
2019-03-02T07:26:05.751Z,95525.00
2019-03-02T07:28:38.741Z,95515.00
2019-03-02T07:31:08.255Z,95522.00
2019-03-02T07:33:38.647Z,95519.00
2019-03-02T07:36:09.055Z,95523.00
2019-03-02T07:38:39.415Z,95521.00
2019-03-02T07:41:09.829Z,95524.00
2019-03-02T07:43:42.190Z,95523.00
2019-03-02T07:46:12.762Z,95520.00
2019-03-02T07:48:43.159Z,95519.00
2019-03-02T07:51:13.582Z,95520.00
2019-03-02T07:53:43.907Z,95519.00
2019-03-02T07:56:14.330Z,95518.00
2019-03-02T07:58:44.704Z,95527.00
2019-03-02T08:01:16.644Z,95522.00
2019-03-02T08:03:47.238Z,95518.00
2019-03-02T08:06:17.661Z,95523.00
2019-03-02T08:08:49.259Z,95529.00
2019-03-02T08:11:20.341Z,95530.00
2019-03-02T08:13:50.737Z,95527.00
2019-03-02T08:16:21.109Z,95526.00
2019-03-02T08:18:51.527Z,95529.00
2019-03-02T08:21:21.940Z,95534.00
2019-03-02T08:23:53.947Z,95531.00
2019-03-02T08:26:24.287Z,95527.00
2019-03-02T08:28:54.974Z,95529.00
2019-03-02T08:31:25.357Z,95515.00
2019-03-02T08:33:55.762Z,95527.00
2019-03-02T08:36:26.153Z,95518.00
2019-03-02T08:38:56.581Z,95516.00
2019-03-02T08:41:26.935Z,95527.00
2019-03-02T08:43:57.346Z,95514.00
2019-03-02T08:46:27.689Z,95522.00
2019-03-02T08:48:58.119Z,95521.00
2019-03-02T08:51:29.223Z,95516.00
2019-03-02T08:53:59.627Z,95517.00
2019-03-02T08:56:30.017Z,95511.00
2019-03-02T08:59:01.906Z,95520.00
2019-03-02T09:01:32.555Z,95514.00
2019-03-02T09:04:03.296Z,95511.00
2019-03-02T09:06:34.780Z,95511.00
2019-03-02T09:09:08.518Z,95512.00
2019-03-02T09:11:40.911Z,95516.00
2019-03-02T09:14:12.638Z,95507.00
2019-03-02T09:16:43.165Z,95511.00
2019-03-02T09:19:16.864Z,95510.00
2019-03-02T09:21:47.951Z,95503.00
2019-03-02T09:24:19.567Z,95507.00
2019-03-02T09:26:50.171Z,95502.00
2019-03-02T09:29:21.164Z,95504.00
2019-03-02T09:31:51.774Z,95494.00
2019-03-02T09:34:22.424Z,95495.00
2019-03-02T09:36:53.173Z,95488.00
2019-03-02T09:39:23.898Z,95490.00
2019-03-02T09:41:57.801Z,95488.00
2019-03-02T09:44:26.808Z,95483.00
2019-03-02T09:46:57.431Z,95480.00
2019-03-02T09:49:28.013Z,95492.00
2019-03-02T09:51:58.704Z,95489.00
2019-03-02T09:54:29.302Z,95483.00
2019-03-02T09:56:59.806Z,95482.00
2019-03-02T09:59:30.390Z,95497.00
2019-03-02T10:02:00.887Z,95491.00
2019-03-02T10:04:31.732Z,95497.00
2019-03-02T10:07:03.354Z,95490.00
2019-03-02T10:09:33.973Z,95488.00
2019-03-02T10:12:05.189Z,95497.00
2019-03-02T10:14:36.032Z,95498.00
2019-03-02T10:17:06.643Z,95496.00
2019-03-02T10:19:37.042Z,95498.00
2019-03-02T10:22:07.910Z,95494.00
2019-03-02T10:24:39.715Z,95499.00
2019-03-02T10:27:10.409Z,95488.00
2019-03-02T10:29:44.260Z,95493.00
2019-03-02T10:32:13.508Z,95483.00
2019-03-02T10:34:45.330Z,95489.00
2019-03-02T10:37:15.998Z,95482.00
2019-03-02T10:39:46.637Z,95484.00
2019-03-02T10:42:17.273Z,95472.00
2019-03-02T10:44:47.866Z,95476.00
2019-03-02T10:47:18.619Z,95476.00
2019-03-02T10:49:49.360Z,95471.00
2019-03-02T10:52:19.992Z,95479.00
2019-03-02T10:54:50.399Z,95475.00
2019-03-02T10:57:21.134Z,95475.00
2019-03-02T10:59:53.139Z,95471.00
2019-03-02T11:02:25.769Z,95473.00
2019-03-02T11:05:02.775Z,95470.00
2019-03-02T11:08:00.907Z,95464.00
2019-03-02T11:10:57.535Z,95464.00
2019-03-02T11:13:56.437Z,95473.00
2019-03-02T11:16:56.862Z,95466.00
2019-03-02T11:19:37.015Z,95464.00
2019-03-02T11:22:38.315Z,95466.00
2019-03-02T11:25:27.774Z,95479.00
2019-03-02T11:28:16.402Z,95463.00
2019-03-02T11:31:11.716Z,95480.00
2019-03-02T11:34:01.564Z,95467.00
2019-03-02T11:36:51.809Z,95476.00
2019-03-02T11:39:28.101Z,95469.00
2019-03-02T11:42:26.619Z,95473.00
2019-03-02T11:45:11.630Z,95480.00
2019-03-02T11:48:00.935Z,95476.00
2019-03-02T11:50:55.839Z,95474.00
2019-03-02T11:53:52.063Z,95466.00
2019-03-02T11:56:39.090Z,95466.00
2019-03-02T11:59:28.533Z,95472.00
2019-03-02T12:02:24.799Z,95463.00
2019-03-02T12:05:13.135Z,95459.00
2019-03-02T12:08:11.870Z,95466.00
2019-03-02T12:11:01.195Z,95459.00
2019-03-02T12:13:56.266Z,95453.00
2019-03-02T12:17:00.229Z,95458.00
2019-03-02T12:19:50.787Z,95462.00
2019-03-02T12:22:48.956Z,95458.00
2019-03-02T12:25:56.109Z,95448.00
2019-03-02T12:28:55.689Z,95452.00
2019-03-02T12:31:47.597Z,95448.00
2019-03-02T12:34:39.728Z,95445.00
2019-03-02T12:37:32.821Z,95440.00
2019-03-02T12:40:21.093Z,95440.00
2019-03-02T12:43:23.075Z,95432.00
2019-03-02T12:46:21.069Z,95435.00
2019-03-02T12:49:10.969Z,95427.00
2019-03-02T12:51:52.371Z,95432.00
2019-03-02T12:54:43.329Z,95426.00
2019-03-02T12:57:30.805Z,95431.00
2019-03-02T13:00:24.931Z,95425.00
2019-03-02T13:03:12.617Z,95429.00
2019-03-02T13:06:04.973Z,95421.00
2019-03-02T13:09:02.793Z,95425.00
2019-03-02T13:11:57.892Z,95418.00
2019-03-02T13:14:56.345Z,95417.00
2019-03-02T13:17:38.503Z,95428.00
2019-03-02T13:20:35.647Z,95418.00
2019-03-02T13:23:26.459Z,95410.00
2019-03-02T13:26:25.035Z,95415.00
2019-03-02T13:29:27.497Z,95411.00
2019-03-02T13:32:23.063Z,95417.00
2019-03-02T13:35:05.947Z,95412.00
2019-03-02T13:38:11.060Z,95429.00
2019-03-02T13:40:59.207Z,95414.00
2019-03-02T13:44:02.162Z,95416.00
2019-03-02T13:46:37.192Z,95420.00
2019-03-02T13:49:38.596Z,95427.00
2019-03-02T13:52:33.947Z,95421.00
2019-03-02T13:55:13.479Z,95422.00
2019-03-02T13:57:59.378Z,95416.00
2019-03-02T14:00:44.188Z,95409.00
2019-03-02T14:03:37.694Z,95417.00
2019-03-02T14:06:29.818Z,95412.00
2019-03-02T14:09:19.833Z,95401.00
2019-03-02T14:12:19.551Z,95403.00
2019-03-02T14:15:07.013Z,95393.00
2019-03-02T14:18:07.976Z,95391.00
2019-03-02T14:21:12.254Z,95391.00
2019-03-02T14:24:03.911Z,95391.00
2019-03-02T14:26:55.732Z,95397.00
2019-03-02T14:29:47.119Z,95387.00
2019-03-02T14:32:28.040Z,95392.00
2019-03-02T14:35:08.497Z,95386.00
2019-03-02T14:37:52.052Z,95388.00
2019-03-02T14:40:51.274Z,95386.00
2019-03-02T14:43:37.457Z,95380.00
2019-03-02T14:46:26.823Z,95382.00
2019-03-02T14:49:20.535Z,95380.00
2019-03-02T14:52:12.966Z,95379.00
2019-03-02T14:55:05.376Z,95378.00
2019-03-02T14:58:03.833Z,95370.00
2019-03-02T15:00:50.344Z,95377.00
2019-03-02T15:03:33.950Z,95378.00
2019-03-02T15:06:14.686Z,95373.00
2019-03-02T15:09:05.302Z,95381.00
2019-03-02T15:11:54.628Z,95377.00
2019-03-02T15:14:32.082Z,95374.00
2019-03-02T15:17:12.242Z,95374.00
2019-03-02T15:19:57.424Z,95373.00
2019-03-02T15:22:29.504Z,95373.00
2019-03-02T15:25:16.045Z,95376.00
2019-03-02T15:28:04.003Z,95375.00
2019-03-02T15:30:59.141Z,95379.00
2019-03-02T15:33:50.521Z,95374.00
2019-03-02T15:36:43.967Z,95369.00
2019-03-02T15:39:49.274Z,95379.00
2019-03-02T15:42:54.216Z,95382.00
2019-03-02T15:45:42.533Z,95375.00
2019-03-02T15:48:31.995Z,95381.00
2019-03-02T15:51:26.956Z,95388.00
2019-03-02T15:54:15.011Z,95383.00
2019-03-02T15:57:03.572Z,95390.00
2019-03-02T15:59:51.538Z,95386.00
2019-03-02T16:02:52.731Z,95378.00
2019-03-02T16:05:47.872Z,95378.00
2019-03-02T16:08:32.174Z,95379.00
2019-03-02T16:11:32.307Z,95387.00
2019-03-02T16:14:10.921Z,95389.00
2019-03-02T16:16:59.963Z,95392.00
2019-03-02T16:19:55.867Z,95386.00
2019-03-02T16:22:57.345Z,95382.00
2019-03-02T16:25:52.720Z,95392.00
2019-03-02T16:28:34.173Z,95390.00
2019-03-02T16:31:27.147Z,95390.00
2019-03-02T16:34:08.738Z,95397.00
2019-03-02T16:36:59.576Z,95390.00
2019-03-02T16:40:04.138Z,95399.00
2019-03-02T16:42:52.250Z,95401.00
2019-03-02T16:46:07.833Z,95405.00
2019-03-02T16:48:47.886Z,95399.00
2019-03-02T16:52:02.291Z,95412.00
2019-03-02T16:54:56.757Z,95404.00
2019-03-02T16:57:41.120Z,95404.00
2019-03-02T17:00:31.715Z,95411.00
2019-03-02T17:03:17.719Z,95414.00
2019-03-02T17:06:13.613Z,95413.00
2019-03-02T17:08:52.445Z,95425.00
2019-03-02T17:12:00.150Z,95413.00
2019-03-02T17:14:48.398Z,95419.00
2019-03-02T17:17:35.938Z,95423.00
2019-03-02T17:20:18.283Z,95411.00
2019-03-02T17:22:57.179Z,95424.00
2019-03-02T17:25:36.201Z,95437.00
2019-03-02T17:28:35.295Z,95431.00
2019-03-02T17:31:23.315Z,95429.00
2019-03-02T17:34:15.447Z,95430.00
2019-03-02T17:37:00.604Z,95422.00
2019-03-02T17:40:01.288Z,95427.00
2019-03-02T17:42:48.331Z,95434.00
2019-03-02T17:45:40.325Z,95435.00
2019-03-02T17:48:25.875Z,95436.00
2019-03-02T17:51:18.085Z,95447.00
2019-03-02T17:54:03.434Z,95436.00
2019-03-02T17:56:53.756Z,95434.00
2019-03-02T17:59:39.712Z,95434.00
2019-03-02T18:02:25.185Z,95441.00
2019-03-02T18:05:17.498Z,95442.00
2019-03-02T18:08:15.377Z,95447.00
2019-03-02T18:11:13.463Z,95437.00
2019-03-02T18:14:07.572Z,95443.00
2019-03-02T18:17:15.230Z,95443.00
2019-03-02T18:19:46.878Z,95448.00
2019-03-02T18:22:17.303Z,95448.00
2019-03-02T18:24:48.203Z,95446.00
2019-03-02T18:27:20.021Z,95453.00
2019-03-02T18:29:50.536Z,95452.00
2019-03-02T18:32:23.497Z,95453.00
2019-03-02T18:34:56.828Z,95452.00
2019-03-02T18:37:30.263Z,95447.00
2019-03-02T18:40:02.173Z,95448.00
2019-03-02T18:42:30.816Z,95449.00
2019-03-02T18:45:04.337Z,95452.00
2019-03-02T18:47:34.200Z,95449.00
2019-03-02T18:50:25.013Z,95452.00
2019-03-02T18:53:13.114Z,95463.00
2019-03-02T18:55:43.519Z,95463.00
2019-03-02T18:58:13.867Z,95453.00
2019-03-02T19:00:49.314Z,95463.00
2019-03-02T19:03:21.074Z,95464.00
2019-03-02T19:05:51.960Z,95473.00
2019-03-02T19:08:22.422Z,95465.00
2019-03-02T19:10:52.829Z,95466.00
2019-03-02T19:13:23.202Z,95470.00
2019-03-02T19:15:54.123Z,95472.00
2019-03-02T19:18:24.467Z,95467.00
2019-03-02T19:20:54.886Z,95472.00
2019-03-02T19:23:25.410Z,95477.00
2019-03-02T19:25:56.015Z,95478.00
2019-03-02T19:28:26.444Z,95476.00
2019-03-02T19:30:56.855Z,95486.00
2019-03-02T19:33:27.271Z,95475.00
2019-03-02T19:35:57.648Z,95483.00
2019-03-02T19:38:28.108Z,95479.00
2019-03-02T19:40:58.544Z,95482.00
2019-03-02T19:43:28.882Z,95482.00
2019-03-02T19:45:59.330Z,95489.00
2019-03-02T19:48:29.781Z,95486.00
2019-03-02T19:51:00.202Z,95489.00
2019-03-02T19:53:30.613Z,95500.00
2019-03-02T19:56:01.036Z,95492.00
2019-03-02T19:58:31.390Z,95498.00
2019-03-02T20:01:01.781Z,95503.00
2019-03-02T20:03:32.183Z,95502.00
2019-03-02T20:06:02.598Z,95501.00
2019-03-02T20:08:33.150Z,95489.00
2019-03-02T20:11:03.639Z,95498.00
2019-03-02T20:13:34.749Z,95500.00
2019-03-02T20:16:07.854Z,95504.00
2019-03-02T20:18:38.236Z,95513.00
2019-03-02T20:21:08.742Z,95503.00
2019-03-02T20:23:39.226Z,95511.00
2019-03-02T20:26:09.749Z,95511.00
2019-03-02T20:28:40.275Z,95514.00
2019-03-02T20:31:10.670Z,95509.00
2019-03-02T20:33:41.159Z,95512.00
2019-03-02T20:36:11.610Z,95515.00
2019-03-02T20:38:42.063Z,95517.00
2019-03-02T20:41:19.512Z,95516.00
2019-03-02T20:43:50.056Z,95517.00
2019-03-02T20:46:20.712Z,95513.00
2019-03-02T20:48:51.266Z,95516.00
2019-03-02T20:51:21.744Z,95506.00
2019-03-02T20:53:52.251Z,95518.00
2019-03-02T20:56:22.863Z,95500.00
2019-03-02T20:58:53.320Z,95505.00
2019-03-02T21:01:25.135Z,95504.00
2019-03-02T21:03:55.502Z,95504.00
2019-03-02T21:06:25.926Z,95505.00
2019-03-02T21:08:56.392Z,95503.00
2019-03-02T21:11:26.761Z,95509.00
2019-03-02T21:13:57.334Z,95525.00
2019-03-02T21:16:27.740Z,95516.00
2019-03-02T21:18:58.379Z,95511.00
2019-03-02T21:21:29.016Z,95513.00
2019-03-02T21:23:59.445Z,95508.00
2019-03-02T21:26:30.017Z,95516.00
2019-03-02T21:29:00.602Z,95517.00
2019-03-02T21:31:31.050Z,95515.00
2019-03-02T21:34:01.460Z,95521.00
2019-03-02T21:36:31.905Z,95517.00
2019-03-02T21:39:02.341Z,95521.00
2019-03-02T21:41:32.717Z,95521.00
2019-03-02T21:44:03.291Z,95519.00
2019-03-02T21:46:33.725Z,95520.00
2019-03-02T21:49:04.179Z,95522.00
2019-03-02T21:51:34.598Z,95517.00
2019-03-02T21:54:04.975Z,95525.00
2019-03-02T21:56:35.403Z,95519.00
2019-03-02T21:59:05.797Z,95519.00
2019-03-02T22:01:36.213Z,95520.00
2019-03-02T22:04:06.581Z,95519.00
2019-03-02T22:06:37.025Z,95527.00
2019-03-02T22:09:08.519Z,95523.00
2019-03-02T22:11:38.921Z,95524.00
2019-03-02T22:14:14.001Z,95520.00
2019-03-02T22:16:44.299Z,95523.00
2019-03-02T22:19:14.703Z,95526.00
2019-03-02T22:21:45.125Z,95528.00
2019-03-02T22:24:15.476Z,95516.00
2019-03-02T22:26:45.876Z,95522.00
2019-03-02T22:29:18.002Z,95520.00
2019-03-02T22:31:48.364Z,95533.00
2019-03-02T22:34:18.726Z,95527.00
2019-03-02T22:36:49.118Z,95534.00
2019-03-02T22:39:19.513Z,95531.00
2019-03-02T22:41:49.906Z,95531.00
2019-03-02T22:44:20.286Z,95531.00
2019-03-02T22:46:50.625Z,95534.00
2019-03-02T22:49:21.008Z,95526.00
2019-03-02T22:51:51.458Z,95517.00
2019-03-02T22:54:21.822Z,95523.00
2019-03-02T22:56:52.240Z,95523.00
2019-03-02T22:59:22.612Z,95515.00
2019-03-02T23:02:07.605Z,95508.00
2019-03-02T23:04:37.946Z,95515.00
2019-03-02T23:07:08.335Z,95506.00
2019-03-02T23:09:38.710Z,95507.00
2019-03-02T23:12:09.117Z,95502.00
2019-03-02T23:14:39.488Z,95501.00
2019-03-02T23:17:09.942Z,95499.00
2019-03-02T23:19:40.304Z,95495.00
2019-03-02T23:22:10.692Z,95501.00
2019-03-02T23:24:41.052Z,95499.00
2019-03-02T23:27:11.414Z,95503.00
2019-03-02T23:29:41.912Z,95504.00
2019-03-02T23:32:12.236Z,95507.00
2019-03-02T23:34:42.626Z,95501.00
2019-03-02T23:37:12.956Z,95511.00
2019-03-02T23:39:43.348Z,95497.00
2019-03-02T23:42:13.702Z,95503.00
2019-03-02T23:44:45.052Z,95502.00
2019-03-02T23:47:15.415Z,95506.00
2019-03-02T23:49:45.976Z,95494.00
2019-03-02T23:52:16.340Z,95501.00
2019-03-02T23:54:46.761Z,95508.00
2019-03-02T23:57:17.135Z,95507.00
2019-03-02T23:59:47.479Z,95489.00
